Time;durP1;ratioP1;P1;durP2;ratioP2;P2;SDS_P1;SDS_P2;PMS_P1;PMS_P2;Temp;Humidity;BMP_temperature;BMP_pressure;BME280_temperature;BME280_humidity;BME280_pressure;Samples;Min_cycle;Max_cycle;Signal;HPM_P1;HPM_P2
2022/05/15 00:00:58;;;;;;;8.80;3.17;;;18.10;88.50;;;;;;4159067;28;20444;-67
2022/05/15 00:02:59;;;;;;;9.15;3.53;;;18.00;89.00;;;;;;4153835;28;20037;-67
2022/05/15 00:05:00;;;;;;;10.25;3.47;;;18.00;88.30;;;;;;4153806;28;20033;-67
2022/05/15 00:07:00;;;;;;;10.25;3.45;;;17.90;88.50;;;;;;4148003;28;20083;-67
2022/05/15 00:09:01;;;;;;;9.93;3.47;;;17.90;89.90;;;;;;4155473;28;20434;-67
2022/05/15 00:11:04;;;;;;;9.68;3.53;;;17.90;88.40;;;;;;4158425;28;20108;-67
2022/05/15 00:13:06;;;;;;;11.88;3.67;;;17.80;89.20;;;;;;4154228;28;22899;-67
2022/05/15 00:15:07;;;;;;;10.23;3.15;;;17.80;89.00;;;;;;4154882;28;20350;-68
2022/05/15 00:17:07;;;;;;;10.82;3.20;;;17.70;90.30;;;;;;4156244;28;20065;-67
2022/05/15 00:19:09;;;;;;;16.00;3.85;;;17.70;90.00;;;;;;4154379;28;20443;-67
2022/05/15 00:21:11;;;;;;;11.15;3.85;;;17.70;89.60;;;;;;4151347;28;20029;-69
2022/05/15 00:23:12;;;;;;;8.55;3.17;;;17.60;89.00;;;;;;4157981;28;20378;-68
2022/05/15 00:25:12;;;;;;;9.45;3.38;;;17.60;89.00;;;;;;4154598;28;20064;-67
2022/05/15 00:27:13;;;;;;;10.73;3.88;;;17.50;89.40;;;;;;4150420;28;20030;-67
2022/05/15 00:29:14;;;;;;;11.20;3.65;;;17.50;89.50;;;;;;4155955;28;20528;-67
2022/05/15 00:31:14;;;;;;;7.15;2.88;;;17.50;89.50;;;;;;4155449;28;20505;-67
2022/05/15 00:33:15;;;;;;;10.80;2.90;;;17.50;89.50;;;;;;4154841;28;20075;-67
2022/05/15 00:35:17;;;;;;;9.13;3.78;;;17.40;89.50;;;;;;4149958;28;20056;-68
2022/05/15 00:37:17;;;;;;;8.98;3.03;;;17.40;89.60;;;;;;4151228;28;20037;-67
2022/05/15 00:39:18;;;;;;;10.73;3.70;;;17.30;90.00;;;;;;4155550;28;20494;-67
2022/05/15 00:41:19;;;;;;;10.48;3.53;;;17.30;90.20;;;;;;4151518;28;20121;-67
2022/05/15 00:43:41;;;;;;;9.02;3.25;;;17.20;90.40;;;;;;4147226;28;20444;-68
2022/05/15 00:45:41;;;;;;;8.80;3.10;;;17.20;90.50;;;;;;4152168;28;20056;-67
2022/05/15 00:47:42;;;;;;;13.00;3.47;;;17.20;91.20;;;;;;4155612;28;20030;-67
2022/05/15 00:49:43;;;;;;;11.85;4.05;;;17.20;90.60;;;;;;4156488;28;20427;-67
2022/05/15 00:51:53;;;;;;;13.30;3.92;;;17.10;90.40;;;;;;4155024;28;20037;-67
2022/05/15 00:54:06;;;;;;;12.25;4.10;;;17.00;90.50;;;;;;4150447;28;20160;-67
2022/05/15 00:56:07;;;;;;;;;;;16.90;91.10;;;;;;4152750;28;20400;-67
2022/05/15 00:58:18;;;;;;;12.55;3.65;;;16.90;91.20;;;;;;4154185;28;20528;-67
2022/05/15 01:00:25;;;;;;;10.73;3.38;;;16.80;91.20;;;;;;4156904;28;20029;-67
2022/05/15 01:02:32;;;;;;;9.23;3.13;;;16.70;91.10;;;;;;4156838;28;20400;-67
2022/05/15 01:04:33;;;;;;;12.65;3.92;;;16.60;91.20;;;;;;4153491;28;20108;-67
2022/05/15 01:06:36;;;;;;;10.70;3.33;;;16.50;91.30;;;;;;4157738;28;20022;-67
2022/05/15 01:08:37;;;;;;;12.35;3.50;;;16.50;91.50;;;;;;4151551;28;20030;-67
2022/05/15 01:10:48;;;;;;;11.98;3.70;;;16.40;91.60;;;;;;4152484;28;20385;-67
2022/05/15 01:12:49;;;;;;;9.82;3.35;;;16.40;91.60;;;;;;4151438;28;20033;-67
2022/05/15 01:14:50;;;;;;;11.13;3.55;;;16.40;91.60;;;;;;4154894;28;20061;-67
2022/05/15 01:16:51;;;;;;;8.70;3.33;;;16.40;91.50;;;;;;4153488;28;20048;-67
2022/05/15 01:18:57;;;;;;;13.13;3.83;;;16.40;91.60;;;;;;4154672;28;20018;-67
2022/05/15 01:20:59;;;;;;;9.75;3.45;;;16.40;91.60;;;;;;4151252;28;20397;-67
2022/05/15 01:23:00;;;;;;;9.07;3.72;;;16.40;91.50;;;;;;4155603;28;22151;-67
2022/05/15 01:25:11;;;;;;;6.28;3.42;;;16.50;91.60;;;;;;4149941;28;20072;-67
2022/05/15 01:27:13;;;;;;;7.47;3.10;;;16.50;91.40;;;;;;4151841;28;20037;-67
2022/05/15 01:29:13;;;;;;;11.00;3.88;;;16.50;91.20;;;;;;4149123;28;20030;-67
2022/05/15 01:31:15;;;;;;;9.20;3.70;;;16.60;91.40;;;;;;4153869;28;20032;-67
2022/05/15 01:33:16;;;;;;;7.78;3.47;;;16.60;91.30;;;;;;4152379;28;20041;-67
2022/05/15 01:35:16;;;;;;;12.65;4.03;;;16.60;91.70;;;;;;4151487;28;20041;-67
2022/05/15 01:37:17;;;;;;;12.98;3.50;;;16.60;91.60;;;;;;4150531;28;20038;-67
2022/05/15 01:39:18;;;;;;;6.90;3.20;;;16.70;92.40;;;;;;4153959;28;20026;-67
2022/05/15 01:41:19;;;;;;;8.02;2.70;;;16.70;92.40;;;;;;4148573;28;20125;-67
2022/05/15 01:43:20;;;;;;;8.38;3.20;;;16.80;92.10;;;;;;4153590;28;20087;-67
2022/05/15 01:45:21;;;;;;;11.15;3.30;;;16.80;92.20;;;;;;4149406;28;20041;-67
2022/05/15 01:47:21;;;;;;;12.50;3.42;;;16.80;91.90;;;;;;4149589;28;20072;-67
2022/05/15 01:49:22;;;;;;;9.25;2.95;;;16.80;91.70;;;;;;4149812;28;20393;-67
2022/05/15 01:51:23;;;;;;;10.43;4.00;;;16.80;91.70;;;;;;4150246;28;20186;-67
2022/05/15 01:53:24;;;;;;;10.45;3.33;;;16.80;91.50;;;;;;4158201;28;20488;-67
2022/05/15 01:55:25;;;;;;;8.35;3.42;;;16.90;91.00;;;;;;4148557;28;20121;-67
2022/05/15 01:57:25;;;;;;;7.82;3.15;;;16.90;90.80;;;;;;4153057;28;20068;-67
2022/05/15 01:59:26;;;;;;;7.43;2.90;;;16.90;90.70;;;;;;4153160;28;20086;-67
2022/05/15 02:01:26;;;;;;;10.10;3.70;;;16.90;90.90;;;;;;4149595;28;20038;-67
2022/05/15 02:03:27;;;;;;;8.40;3.08;;;16.90;90.70;;;;;;4154581;28;20529;-67
2022/05/15 02:05:28;;;;;;;7.75;3.30;;;16.80;90.60;;;;;;4152349;28;20053;-67
2022/05/15 02:07:28;;;;;;;7.93;3.08;;;16.90;90.60;;;;;;4157621;28;20504;-67
2022/05/15 02:09:29;;;;;;;11.38;3.50;;;16.80;90.40;;;;;;4158099;28;20045;-67
2022/05/15 02:11:29;;;;;;;10.50;3.65;;;16.80;90.30;;;;;;4156495;28;20038;-67
2022/05/15 02:13:31;;;;;;;9.52;3.78;;;16.80;90.60;;;;;;4161284;28;20053;-67
2022/05/15 02:15:31;;;;;;;9.40;3.35;;;16.80;90.50;;;;;;4155925;28;20030;-67
2022/05/15 02:17:32;;;;;;;10.45;3.83;;;16.80;91.00;;;;;;4157257;28;20100;-67
2022/05/15 02:19:33;;;;;;;11.45;3.65;;;16.70;91.40;;;;;;4157716;28;20029;-67
2022/05/15 02:21:34;;;;;;;13.43;4.60;;;16.70;91.80;;;;;;4153762;28;20511;-67
2022/05/15 02:23:34;;;;;;;8.57;3.65;;;16.70;92.20;;;;;;4155710;28;20025;-67
2022/05/15 02:25:35;;;;;;;8.30;3.67;;;16.70;92.90;;;;;;4152443;28;20041;-67
2022/05/15 02:27:36;;;;;;;9.95;3.60;;;16.70;92.90;;;;;;4155797;28;20479;-67
2022/05/15 02:29:37;;;;;;;8.40;3.00;;;16.70;92.50;;;;;;4154414;28;20412;-67
2022/05/15 02:31:38;;;;;;;10.23;3.33;;;16.70;91.80;;;;;;4156188;28;20038;-67
2022/05/15 02:33:38;;;;;;;9.10;3.25;;;16.70;91.20;;;;;;4159587;28;20147;-67
2022/05/15 02:35:39;;;;;;;8.85;3.25;;;16.60;90.70;;;;;;4151811;28;20110;-67
2022/05/15 02:37:41;;;;;;;11.63;3.65;;;16.60;90.60;;;;;;4157852;28;20037;-67
2022/05/15 02:39:41;;;;;;;9.93;3.20;;;16.60;90.50;;;;;;4158662;28;20089;-68
2022/05/15 02:41:42;;;;;;;11.25;3.35;;;16.60;90.40;;;;;;4152112;28;20042;-67
2022/05/15 02:43:42;;;;;;;7.28;3.08;;;16.60;90.30;;;;;;4148874;28;20030;-67
2022/05/15 02:45:43;;;;;;;7.20;3.10;;;16.60;90.30;;;;;;4156694;28;20388;-67
2022/05/15 02:47:44;;;;;;;7.50;3.15;;;16.60;90.30;;;;;;4152733;28;20030;-67
2022/05/15 02:52:04;;;;;;;8.77;2.95;;;16.50;90.30;;;;;;4155149;28;20030;-67
2022/05/15 02:54:05;;;;;;;9.75;3.53;;;16.50;90.30;;;;;;4155389;28;20092;-67
2022/05/15 02:56:10;;;;;;;9.68;3.92;;;16.50;90.30;;;;;;4155988;28;20040;-67
2022/05/15 02:58:10;;;;;;;8.65;3.33;;;16.40;90.10;;;;;;4151706;28;20041;-67
2022/05/15 03:00:13;;;;;;;10.77;4.18;;;16.40;90.40;;;;;;4156921;28;20592;-67
2022/05/15 03:02:14;;;;;;;9.23;3.80;;;16.40;91.20;;;;;;4155238;28;20041;-67
2022/05/15 03:04:14;;;;;;;10.20;3.92;;;16.30;90.80;;;;;;4150360;28;20091;-67
2022/05/15 03:06:17;;;;;;;15.43;3.70;;;16.30;90.50;;;;;;4153058;28;20543;-67
2022/05/15 03:08:17;;;;;;;10.20;3.75;;;16.40;90.60;;;;;;4155208;28;20040;-67
2022/05/15 03:10:21;;;;;;;10.75;3.30;;;16.30;90.40;;;;;;4159271;28;20049;-67
2022/05/15 03:12:21;;;;;;;8.10;3.25;;;16.30;90.30;;;;;;4158580;28;20038;-67
2022/05/15 03:14:22;;;;;;;9.75;3.65;;;16.30;90.30;;;;;;4159852;28;20084;-67
2022/05/15 03:16:22;;;;;;;8.60;3.45;;;16.20;90.40;;;;;;4158196;28;20033;-67
2022/05/15 03:18:23;;;;;;;6.78;3.22;;;16.20;90.10;;;;;;4158358;28;20038;-67
2022/05/15 03:20:27;;;;;;;11.40;3.92;;;16.20;90.30;;;;;;4155402;28;20623;-67
2022/05/15 03:22:27;;;;;;;9.85;3.53;;;16.20;91.00;;;;;;4156911;28;20042;-67
2022/05/15 03:24:28;;;;;;;8.75;3.40;;;16.20;90.80;;;;;;4152569;28;20096;-67
2022/05/15 03:26:31;;;;;;;11.65;4.00;;;16.10;90.90;;;;;;4157710;28;20042;-67
2022/05/15 03:28:31;;;;;;;;;;;16.10;90.70;;;;;;4155180;28;20076;-67
2022/05/15 03:30:32;;;;;;;8.25;3.17;;;16.10;90.90;;;;;;4152090;28;19917;-67
2022/05/15 03:32:33;;;;;;;10.00;3.42;;;16.10;91.20;;;;;;4156224;28;20523;-67
2022/05/15 03:34:34;;;;;;;12.07;3.80;;;16.00;91.10;;;;;;4151392;28;20116;-67
2022/05/15 03:36:36;;;;;;;8.20;3.78;;;16.10;90.90;;;;;;4157908;28;20041;-67
2022/05/15 03:38:42;;;;;;;9.63;3.40;;;16.00;91.30;;;;;;4158886;28;20033;-67
2022/05/15 03:40:43;;;;;;;7.70;3.25;;;16.00;91.50;;;;;;4158279;28;20129;-67
2022/05/15 03:42:44;;;;;;;7.72;3.38;;;16.00;92.30;;;;;;4155350;28;20046;-67
2022/05/15 03:44:44;;;;;;;8.65;3.72;;;15.90;92.20;;;;;;4158286;28;20022;-67
2022/05/15 03:46:45;;;;;;;9.32;3.78;;;15.90;92.00;;;;;;4155459;28;20475;-67
2022/05/15 03:48:46;;;;;;;10.02;3.78;;;15.90;91.50;;;;;;4159494;28;20033;-66
2022/05/15 03:50:47;;;;;;;9.52;3.53;;;15.90;91.30;;;;;;4156492;28;20038;-67
2022/05/15 03:52:48;;;;;;;7.97;3.97;;;15.90;91.30;;;;;;4149882;28;20037;-68
2022/05/15 03:54:49;;;;;;;11.02;3.60;;;15.80;91.20;;;;;;4156209;28;20507;-67
2022/05/15 03:56:50;;;;;;;12.38;4.15;;;15.80;91.00;;;;;;4151247;28;20030;-67
2022/05/15 03:58:50;;;;;;;8.18;3.85;;;15.80;91.00;;;;;;4157889;28;21021;-67
2022/05/15 04:00:51;;;;;;;7.43;3.25;;;15.80;91.00;;;;;;4152744;28;20037;-67
2022/05/15 04:02:52;;;;;;;8.38;3.10;;;15.80;91.20;;;;;;4159189;28;20022;-67
2022/05/15 04:04:52;;;;;;;10.75;3.67;;;15.80;91.30;;;;;;4152754;28;20481;-67
2022/05/15 04:06:53;;;;;;;8.45;3.60;;;15.80;91.50;;;;;;4154102;28;20028;-67
2022/05/15 04:08:54;;;;;;;12.48;3.75;;;15.70;91.50;;;;;;4154579;28;20117;-67
2022/05/15 04:10:55;;;;;;;12.32;4.05;;;15.70;91.40;;;;;;4158545;28;20059;-67
2022/05/15 04:12:56;;;;;;;6.85;3.00;;;15.70;91.30;;;;;;4154543;28;20117;-67
2022/05/15 04:14:56;;;;;;;8.20;3.13;;;15.70;91.30;;;;;;4149699;28;20026;-67
2022/05/15 04:16:57;;;;;;;11.45;4.10;;;15.70;91.40;;;;;;4154553;28;20030;-67
2022/05/15 04:18:58;;;;;;;8.52;3.40;;;15.70;91.40;;;;;;4151917;28;20556;-67
2022/05/15 04:20:58;;;;;;;12.35;4.20;;;15.70;91.40;;;;;;4153089;28;20041;-67
2022/05/15 04:22:59;;;;;;;8.55;3.70;;;15.70;91.40;;;;;;4154860;28;20083;-67
2022/05/15 04:25:00;;;;;;;11.57;3.92;;;15.70;92.00;;;;;;4150966;28;20037;-67
2022/05/15 04:27:01;;;;;;;8.30;3.20;;;15.70;91.80;;;;;;4151149;28;20092;-67
2022/05/15 04:29:02;;;;;;;11.82;4.50;;;15.70;91.70;;;;;;4157030;28;20507;-67
2022/05/15 04:31:05;;;;;;;9.25;3.83;;;15.70;91.70;;;;;;4157866;28;20041;-67
2022/05/15 04:33:05;;;;;;;6.45;3.42;;;15.70;91.80;;;;;;4154542;28;20037;-67
2022/05/15 04:35:06;;;;;;;10.30;3.78;;;15.70;91.90;;;;;;4155155;28;20113;-67
2022/05/15 04:37:07;;;;;;;9.05;3.55;;;15.70;92.00;;;;;;4149093;28;20038;-67
2022/05/15 04:39:08;;;;;;;9.48;3.92;;;15.70;92.20;;;;;;4150690;28;20050;-67
2022/05/15 04:41:08;;;;;;;7.38;3.17;;;15.70;92.10;;;;;;4155423;28;20049;-67
2022/05/15 04:43:09;;;;;;;10.55;3.88;;;15.70;92.10;;;;;;4148596;28;20409;-67
2022/05/15 04:45:11;;;;;;;9.93;3.55;;;15.80;92.20;;;;;;4156509;28;20471;-69
2022/05/15 04:47:13;;;;;;;9.85;4.38;;;15.80;92.40;;;;;;4154919;28;20060;-67
2022/05/15 04:49:13;;;;;;;11.48;4.53;;;15.80;92.60;;;;;;4152965;28;20086;-68
2022/05/15 04:51:14;;;;;;;9.88;4.28;;;15.80;92.70;;;;;;4152911;28;20080;-68
2022/05/15 04:53:14;;;;;;;11.65;4.25;;;15.80;93.30;;;;;;4155275;28;20037;-68
2022/05/15 04:55:16;;;;;;;14.38;5.25;;;15.90;93.30;;;;;;4154529;28;20092;-68
2022/05/15 04:57:16;;;;;;;11.55;4.30;;;15.90;93.30;;;;;;4150907;28;20212;-67
2022/05/15 04:59:17;;;;;;;10.68;4.68;;;15.90;93.50;;;;;;4158055;28;20035;-68
2022/05/15 05:01:24;;;;;;;11.20;4.40;;;15.90;93.50;;;;;;4150852;28;20034;-67
2022/05/15 05:03:25;;;;;;;9.70;4.07;;;16.00;93.50;;;;;;4155917;28;20030;-67
2022/05/15 05:05:25;;;;;;;10.38;3.78;;;16.00;93.60;;;;;;4148276;28;20085;-68
2022/05/15 05:07:29;;;;;;;10.88;4.35;;;16.00;93.70;;;;;;4153636;28;20043;-68
2022/05/15 05:09:29;;;;;;;10.93;4.18;;;16.00;94.00;;;;;;4147114;28;20437;-68
2022/05/15 05:11:30;;;;;;;13.70;4.75;;;16.00;94.20;;;;;;4151436;28;20041;-68
2022/05/15 05:13:31;;;;;;;11.43;4.95;;;16.10;94.80;;;;;;4152799;28;20050;-68
2022/05/15 05:15:31;;;;;;;9.90;4.07;;;16.10;94.40;;;;;;4147396;28;20049;-68
2022/05/15 05:17:32;;;;;;;10.77;4.68;;;16.10;94.50;;;;;;4158854;28;20037;-68
2022/05/15 05:19:33;;;;;;;9.07;4.40;;;16.10;94.70;;;;;;4153113;28;20044;-68
2022/05/15 05:21:34;;;;;;;11.23;4.65;;;16.20;94.90;;;;;;4154165;28;20044;-68
2022/05/15 05:23:34;;;;;;;12.52;4.70;;;16.20;95.00;;;;;;4158355;28;20112;-67
2022/05/15 05:25:35;;;;;;;9.50;4.55;;;16.20;96.20;;;;;;4154883;28;20128;-67
2022/05/15 05:27:38;;;;;;;10.02;4.70;;;16.20;95.70;;;;;;4154618;28;20041;-68
2022/05/15 05:29:38;;;;;;;11.35;5.00;;;16.20;95.80;;;;;;4158470;28;20451;-68
2022/05/15 05:31:39;;;;;;;10.35;4.78;;;16.20;95.90;;;;;;4158060;28;20116;-69
2022/05/15 05:33:40;;;;;;;10.93;5.07;;;16.30;96.80;;;;;;4157546;28;20041;-68
2022/05/15 05:35:42;;;;;;;15.10;5.82;;;16.40;96.70;;;;;;4159056;28;20037;-68
2022/05/15 05:37:43;;;;;;;15.48;6.05;;;16.30;96.50;;;;;;4156238;28;20034;-68
2022/05/15 05:39:46;;;;;;;16.65;6.43;;;16.20;96.50;;;;;;4160232;28;20053;-68
2022/05/15 05:41:47;;;;;;;15.52;6.35;;;16.10;96.40;;;;;;4158592;28;20045;-68
2022/05/15 05:43:47;;;;;;;15.88;6.25;;;15.90;97.00;;;;;;4162789;28;20741;-68
2022/05/15 05:45:48;;;;;;;14.68;6.40;;;16.00;97.30;;;;;;4158177;28;20365;-68
2022/05/15 05:47:50;;;;;;;16.08;5.43;;;16.00;97.80;;;;;;4159444;28;20065;-69
2022/05/15 05:49:51;;;;;;;13.35;5.22;;;16.00;98.20;;;;;;4161216;28;20091;-69
2022/05/15 05:51:51;;;;;;;13.23;5.60;;;16.10;98.10;;;;;;4157613;28;20033;-68
2022/05/15 05:53:52;;;;;;;17.23;6.88;;;16.20;99.20;;;;;;4159924;28;20053;-69
2022/05/15 05:55:52;;;;;;;16.77;6.57;;;16.10;97.80;;;;;;4160822;28;20030;-69
2022/05/15 05:57:53;;;;;;;16.35;6.40;;;16.20;98.30;;;;;;4156268;28;20087;-69
2022/05/15 05:59:54;;;;;;;14.15;5.90;;;16.30;98.90;;;;;;4159944;28;20444;-69
2022/05/15 06:01:55;;;;;;;16.50;5.80;;;16.40;99.90;;;;;;4159006;28;20105;-68
2022/05/15 06:06:15;;;;;;;15.95;6.38;;;16.50;98.90;;;;;;4160389;28;20053;-69
2022/05/15 06:08:17;;;;;;;16.73;6.82;;;16.60;99.90;;;;;;4157802;28;20056;-69
2022/05/15 06:10:18;;;;;;;18.15;6.95;;;16.90;99.90;;;;;;4158877;28;20053;-69
2022/05/15 06:12:22;;;;;;;14.77;6.35;;;17.30;99.90;;;;;;4160499;28;20546;-69
2022/05/15 06:14:22;;;;;;;16.45;6.93;;;17.70;99.10;;;;;;4155393;28;20041;-69
2022/05/15 06:16:23;;;;;;;20.27;6.28;;;18.00;97.30;;;;;;4161342;28;20718;-69
2022/05/15 06:18:24;;;;;;;15.43;6.40;;;18.40;96.70;;;;;;4157656;28;20084;-69
2022/05/15 06:20:25;;;;;;;14.80;5.43;;;18.70;96.60;;;;;;4159441;28;20044;-69
2022/05/15 06:22:25;;;;;;;13.13;6.25;;;19.10;97.00;;;;;;4159909;28;20065;-70
2022/05/15 06:24:26;;;;;;;15.43;6.55;;;19.40;96.10;;;;;;4156220;28;20033;-69
2022/05/15 06:26:27;;;;;;;10.52;4.85;;;19.70;94.00;;;;;;4158213;28;20029;-70
2022/05/15 06:28:29;;;;;;;12.35;5.65;;;20.10;94.30;;;;;;4159634;28;20025;-70
2022/05/15 06:30:30;;;;;;;14.63;5.00;;;20.40;92.80;;;;;;4156732;28;20064;-70
2022/05/15 06:32:31;;;;;;;10.52;5.20;;;20.70;94.40;;;;;;4159294;28;20045;-70
2022/05/15 06:34:31;;;;;;;11.60;4.60;;;21.10;94.30;;;;;;4158609;28;20033;-70
2022/05/15 06:36:32;;;;;;;12.25;4.75;;;21.50;92.80;;;;;;4157172;28;20503;-70
2022/05/15 06:38:32;;;;;;;11.07;4.97;;;21.90;92.90;;;;;;4156413;28;20099;-70
2022/05/15 06:40:34;;;;;;;10.70;4.47;;;22.30;92.40;;;;;;4154176;28;20045;-70
2022/05/15 06:42:35;;;;;;;8.60;3.70;;;22.60;86.60;;;;;;4155553;28;20148;-70
2022/05/15 06:44:35;;;;;;;11.30;3.80;;;22.90;86.70;;;;;;4157518;28;20030;-70
2022/05/15 06:46:36;;;;;;;9.02;3.78;;;23.20;85.20;;;;;;4158424;28;20046;-70
2022/05/15 06:48:38;;;;;;;7.95;3.95;;;23.30;82.10;;;;;;4159590;28;20037;-70
2022/05/15 06:50:39;;;;;;;9.32;3.85;;;23.30;79.50;;;;;;4154298;28;20040;-71
2022/05/15 06:52:40;;;;;;;10.85;4.18;;;23.50;81.30;;;;;;4157914;28;20041;-71
2022/05/15 06:54:40;;;;;;;8.00;3.58;;;23.40;78.20;;;;;;4158501;28;20503;-70
2022/05/15 06:59:02;;;;;;;7.63;3.60;;;23.70;79.60;;;;;;4155927;28;20038;-70
2022/05/15 07:01:02;;;;;;;8.55;3.90;;;23.70;80.10;;;;;;4157108;28;20468;-70
2022/05/15 07:03:03;;;;;;;8.75;3.88;;;23.80;79.50;;;;;;4159940;28;20121;-70
2022/05/15 07:05:04;;;;;;;5.78;3.38;;;23.80;78.00;;;;;;4158947;28;20067;-71
2022/05/15 07:07:05;;;;;;;9.63;4.13;;;23.90;78.40;;;;;;4156092;28;20389;-70
2022/05/15 07:09:05;;;;;;;7.75;4.35;;;23.90;78.30;;;;;;4157925;28;20033;-70
2022/05/15 07:11:06;;;;;;;10.82;4.35;;;23.90;77.70;;;;;;4153691;28;20506;-70
2022/05/15 07:13:07;;;;;;;18.80;6.07;;;23.80;77.90;;;;;;4157092;28;20425;-70
2022/05/15 07:15:08;;;;;;;9.32;3.97;;;23.70;76.70;;;;;;4157858;28;20095;-70
2022/05/15 07:17:09;;;;;;;10.40;3.85;;;23.80;79.90;;;;;;4157043;28;20033;-70
2022/05/15 07:19:09;;;;;;;11.50;4.68;;;23.80;79.30;;;;;;4158578;28;20036;-69
2022/05/15 07:21:10;;;;;;;13.57;4.90;;;23.80;77.70;;;;;;4158487;28;20037;-70
2022/05/15 07:23:11;;;;;;;12.13;4.80;;;23.70;77.30;;;;;;4157642;28;20053;-70
2022/05/15 07:25:11;;;;;;;15.93;6.25;;;23.70;77.60;;;;;;4155328;28;20473;-70
2022/05/15 07:27:12;;;;;;;12.13;5.82;;;23.70;78.90;;;;;;4156673;28;20060;-70
2022/05/15 07:29:13;;;;;;;12.20;5.43;;;23.70;78.90;;;;;;4155258;28;20082;-70
2022/05/15 07:31:14;;;;;;;16.05;6.95;;;23.70;79.80;;;;;;4156843;28;20508;-70
2022/05/15 07:33:19;;;;;;;16.05;7.20;;;23.60;77.80;;;;;;4158317;28;20030;-70
2022/05/15 07:35:19;;;;;;;14.02;6.43;;;23.60;77.40;;;;;;4155334;28;20500;-70
2022/05/15 07:37:20;;;;;;;19.33;8.05;;;23.60;80.10;;;;;;4156624;28;20071;-72
2022/05/15 07:39:21;;;;;;;19.92;6.43;;;23.30;77.00;;;;;;4153627;28;20044;-70
2022/05/15 07:41:22;;;;;;;14.27;6.18;;;23.40;78.50;;;;;;4157251;28;20071;-70
2022/05/15 07:43:22;;;;;;;16.65;6.80;;;23.40;77.10;;;;;;4149275;28;20360;-70
2022/05/15 07:45:23;;;;;;;21.98;4.95;;;23.30;76.10;;;;;;4156099;28;20049;-70
2022/05/15 07:47:25;;;;;;;14.48;5.50;;;23.40;78.40;;;;;;4150523;28;20117;-70
2022/05/15 07:49:25;;;;;;;13.00;5.40;;;23.50;78.40;;;;;;4154850;28;20428;-69
2022/05/15 07:51:26;;;;;;;12.15;4.57;;;23.60;77.00;;;;;;4152959;28;20041;-70
2022/05/15 07:53:27;;;;;;;12.77;5.13;;;23.70;79.70;;;;;;4153603;28;20045;-69
2022/05/15 07:55:28;;;;;;;10.68;4.60;;;23.80;77.40;;;;;;4151938;28;20037;-69
2022/05/15 07:57:28;;;;;;;10.00;4.38;;;23.80;76.60;;;;;;4159037;28;20396;-70
2022/05/15 07:59:29;;;;;;;10.23;4.60;;;23.90;75.00;;;;;;4157225;28;20029;-69
2022/05/15 08:01:30;;;;;;;11.80;4.50;;;23.90;76.20;;;;;;4155744;28;20037;-70
2022/05/15 08:03:38;;;;;;;9.55;3.40;;;23.90;74.50;;;;;;4156941;28;20106;-70
2022/05/15 08:08:01;;;;;;;8.25;4.13;;;23.90;76.40;;;;;;4153230;28;20040;-69
2022/05/15 08:10:02;;;;;;;11.13;4.78;;;24.00;77.50;;;;;;4154479;28;20049;-70
2022/05/15 08:12:03;;;;;;;10.50;4.68;;;24.00;76.50;;;;;;4159093;28;20404;-69
2022/05/15 08:14:06;;;;;;;10.75;4.32;;;24.00;74.30;;;;;;4158398;28;20057;-69
2022/05/15 08:16:06;;;;;;;;;;;23.90;75.10;;;;;;4151921;28;20470;-69
2022/05/15 08:25:05;;;;;;;16.50;5.82;;;24.20;73.80;;;;;;4148625;28;20030;-69
2022/05/15 08:27:07;;;;;;;15.45;6.18;;;24.10;72.60;;;;;;4152121;28;21044;-69
2022/05/15 08:29:08;;;;;;;17.27;6.35;;;24.10;70.40;;;;;;4156845;28;20101;-69
2022/05/15 08:31:09;;;;;;;12.45;5.45;;;24.10;70.30;;;;;;4150904;28;20087;-68
2022/05/15 08:33:11;;;;;;;18.08;5.63;;;24.20;70.60;;;;;;4155322;28;20030;-69
2022/05/15 08:35:11;;;;;;;12.40;4.13;;;24.10;67.60;;;;;;4155518;28;20539;-69
2022/05/15 08:37:12;;;;;;;12.10;5.35;;;24.10;67.80;;;;;;4153654;28;20032;-69
2022/05/15 08:39:14;;;;;;;14.10;4.82;;;24.00;68.70;;;;;;4153284;28;20030;-68
2022/05/15 08:41:41;;;;;;;14.60;4.07;;;24.20;68.40;;;;;;4153235;28;20489;-70
2022/05/15 08:43:48;;;;;;;15.00;4.13;;;24.00;68.20;;;;;;4156511;28;20092;-69
2022/05/15 08:46:18;;;;;;;9.43;3.15;;;24.10;67.80;;;;;;4157118;28;20040;-69
2022/05/15 08:48:19;;;;;;;8.40;3.15;;;24.00;64.90;;;;;;4142111;28;20034;-69
2022/05/15 08:50:27;;;;;;;11.20;3.03;;;24.00;67.20;;;;;;4153987;28;20092;-69
2022/05/15 08:52:47;;;;;;;10.68;3.22;;;24.10;66.50;;;;;;4151511;28;20034;-70
2022/05/15 08:55:12;;;;;;;10.48;3.10;;;24.20;64.30;;;;;;4157054;28;20034;-70
2022/05/15 08:57:18;;;;;;;8.88;3.25;;;24.20;64.40;;;;;;4155492;28;20362;-70
2022/05/15 08:59:41;;;;;;;10.35;2.88;;;24.10;62.60;;;;;;4153305;28;20029;-70
2022/05/15 09:01:42;;;;;;;8.60;2.78;;;24.20;63.30;;;;;;4151609;28;20446;-70
2022/05/15 09:03:42;;;;;;;9.52;2.58;;;24.20;61.10;;;;;;4157604;28;20033;-69
2022/05/15 09:06:21;;;;;;;8.63;2.50;;;24.20;62.90;;;;;;4154959;28;20112;-69
2022/05/15 09:09:00;;;;;;;8.18;2.22;;;24.10;61.30;;;;;;4151472;28;20029;-70
2022/05/15 09:11:04;;;;;;;8.25;2.55;;;24.30;60.00;;;;;;4154705;28;20057;-70
2022/05/15 09:13:33;;;;;;;8.52;3.05;;;24.30;58.30;;;;;;4156421;28;20033;-69
2022/05/15 09:15:49;;;;;;;7.32;2.38;;;24.30;58.00;;;;;;4152231;28;20062;-69
2022/05/15 09:17:58;;;;;;;5.13;1.95;;;24.30;58.20;;;;;;4161776;28;20488;-70
2022/05/15 09:20:03;;;;;;;10.35;2.40;;;24.50;59.70;;;;;;4155734;28;20026;-70
2022/05/15 09:22:05;;;;;;;11.88;3.17;;;24.60;61.60;;;;;;4159161;28;20132;-70
2022/05/15 09:24:23;;;;;;;8.77;2.88;;;24.70;58.80;;;;;;4154720;28;20116;-69
2022/05/15 09:26:30;;;;;;;6.43;2.53;;;24.50;58.30;;;;;;4159670;28;20037;-68
2022/05/15 09:28:45;;;;;;;6.13;2.47;;;24.40;58.80;;;;;;4155365;28;20088;-70
2022/05/15 09:30:49;;;;;;;5.43;1.80;;;24.60;58.00;;;;;;4159765;28;20440;-69
2022/05/15 09:32:55;;;;;;;5.38;2.20;;;24.50;56.90;;;;;;4161316;28;20113;-69
2022/05/15 09:35:01;;;;;;;9.15;2.58;;;24.70;57.70;;;;;;4159886;28;20492;-70
2022/05/15 09:39:27;;;;;;;6.07;2.20;;;24.70;58.10;;;;;;4158886;28;20381;-69
2022/05/15 09:43:53;;;;;;;7.97;2.25;;;24.70;57.60;;;;;;4157134;28;20511;-67
2022/05/15 09:45:57;;;;;;;9.43;2.33;;;24.70;57.00;;;;;;4158550;28;20050;-67
2022/05/15 09:47:58;;;;;;;7.20;2.20;;;24.60;56.30;;;;;;4159900;28;20041;-67
2022/05/15 09:49:59;;;;;;;5.82;1.88;;;24.70;57.60;;;;;;4158015;28;20021;-67
2022/05/15 09:52:08;;;;;;;9.25;2.72;;;24.70;57.50;;;;;;4159926;28;20033;-67
2022/05/15 09:54:27;;;;;;;7.43;2.33;;;24.70;56.70;;;;;;4153647;28;20029;-67
2022/05/15 09:56:31;;;;;;;4.35;1.92;;;24.80;58.20;;;;;;4153051;28;20485;-67
2022/05/15 09:58:52;;;;;;;6.65;2.10;;;25.00;59.40;;;;;;4159075;28;20042;-67
2022/05/15 10:01:23;;;;;;;6.00;1.73;;;25.10;57.10;;;;;;4155558;28;20045;-70
2022/05/15 10:03:25;;;;;;;7.53;1.90;;;25.10;55.40;;;;;;4158763;28;20420;-69
2022/05/15 10:05:31;;;;;;;6.85;1.73;;;25.20;53.70;;;;;;4157377;28;20045;-69
2022/05/15 10:07:44;;;;;;;5.05;1.73;;;25.20;52.60;;;;;;4157586;28;20412;-69
2022/05/15 10:09:44;;;;;;;4.72;1.83;;;25.30;53.30;;;;;;4159276;28;20129;-69
2022/05/15 10:11:47;;;;;;;6.85;1.95;;;25.30;53.20;;;;;;4158410;28;20073;-69
2022/05/15 10:13:52;;;;;;;8.88;2.80;;;25.40;55.40;;;;;;4156099;28;20098;-70
2022/05/15 10:15:57;;;;;;;7.55;1.90;;;25.20;55.40;;;;;;4154514;28;20040;-69
2022/05/15 10:18:03;;;;;;;6.45;1.88;;;25.20;55.40;;;;;;4159069;28;20061;-69
2022/05/15 10:20:24;;;;;;;5.10;1.90;;;25.20;55.20;;;;;;4157583;28;20038;-67
2022/05/15 10:22:49;;;;;;;6.25;2.00;;;25.20;54.10;;;;;;4152530;28;20121;-67
2022/05/15 10:24:52;;;;;;;6.93;2.30;;;25.20;54.20;;;;;;4156943;28;20037;-67
2022/05/15 10:27:02;;;;;;;5.63;2.08;;;25.10;53.50;;;;;;4150834;28;20025;-69
2022/05/15 10:29:14;;;;;;;5.45;2.47;;;25.20;54.70;;;;;;4159833;28;20049;-67
2022/05/15 10:31:25;;;;;;;4.82;1.83;;;25.20;55.90;;;;;;4161423;28;20037;-68
2022/05/15 10:33:25;;;;;;;4.55;1.85;;;25.30;56.40;;;;;;4154180;28;20467;-68
2022/05/15 10:35:48;;;;;;;9.05;2.72;;;25.40;55.80;;;;;;4160438;28;20050;-67
2022/05/15 10:38:01;;;;;;;5.78;2.10;;;25.50;55.40;;;;;;4158621;28;20041;-69
2022/05/15 10:40:09;;;;;;;7.03;2.58;;;25.50;55.20;;;;;;4156502;28;20037;-68
2022/05/15 10:42:25;;;;;;;9.55;2.15;;;25.60;54.70;;;;;;4153556;28;20076;-68
2022/05/15 10:44:49;;;;;;;6.65;2.05;;;25.60;55.30;;;;;;4153603;28;20034;-68
2022/05/15 10:46:55;;;;;;;7.97;2.17;;;25.50;54.40;;;;;;4157563;28;20029;-68
2022/05/15 10:49:31;;;;;;;7.07;2.55;;;25.60;56.30;;;;;;4152641;28;20029;-68
2022/05/15 10:52:00;;;;;;;7.45;2.38;;;25.50;55.70;;;;;;4122110;28;20050;-68
2022/05/15 10:59:27;;;;;;;12.48;2.63;;;25.50;54.30;;;;;;4159019;28;20052;-68
2022/05/15 11:01:46;;;;;;;6.53;2.45;;;25.60;54.40;;;;;;4156048;28;20444;-68
2022/05/15 11:03:53;;;;;;;7.10;2.10;;;25.70;54.30;;;;;;4157840;28;20091;-68
2022/05/15 11:06:30;;;;;;;7.05;2.28;;;25.70;54.30;;;;;;4156591;28;20061;-69